Airport Name : Agatti

Other Name : Agatti

ICAO : VOAT

IATA : AGX

FAA :

Latitude : 10.823656

Longitude : 72.176042

Country : India

Local Date and Time : 03 Dec 2020 15:17

 

TAF (Terminal Aerodrome Forecast)

 

METAR (METeorological Aerodrome Report)

VOAT 030800Z 02005KT 6000 SCT015 30/22 Q1009 NOSIG

VOAT 030730Z 32005KT 6000 SCT015 30/22 Q1009 NOSIG

VOAT 030700Z 32005KT 6000 SCT015 30/22 Q1010 NOSIG

VOAT 030630Z 32005KT 5000 HZ SCT015 30/22 Q1011 NOSIG

VOAT 030600Z VRB03KT 5000 HZ SCT015 29/22 Q1011 NOSIG

To Charter a Jet Click here.